Ana Sayfa
METAR-TAF:

METAR-TAF

Havaalanları :

Cobar, Avustralya

Enlem: 31-32-18S, Boylam: 145-47-36E, yükseklik: 221 m

Güncel hava durumu gözlemi

Rapor saat 05:00 UTC de 43 dakika önce yapıldı.
Rüzgar güneydan 16 kt
Sıcaklık 37°C
Nem 11%
Basınç 1010 hPa
Görüş mesafesi 10 km veya daha fazla

METAR: YCBA 160500Z AUTO 19016KT 9999 // NCD 37/02 Q1010

Saat: 16:43 (05:43 UTC)


TAF: eksik

4.000'den fazla havaalanı için hava durumu gözlemleri ve tahminleri (METAR ve TAF raporları).

Kullanılabilir istasyonlar harita üzerinde sarı ve kırmızı noktalarla gösterilir.

İstasyonun adını görmek için fareyi noktanın üzerinde gezdirin.

Sonrasında hava gözlem ve tahminlerini görmek için tıklayın.

Haritayı değiştirmek için: yaklaştırmak için siyah artı işaretli yeşil düğmeye ve uzaklaştırmak için de eksi işaretli düğmeye hızla tıklayın; bitişik haritalar için yeşil okları kullanın.


METAR-TAF: